sensor_id;sensor_type;location;lat;lon;timestamp;P1;durP1;ratioP1;P2;durP2;ratioP2
42094;SDS011;27753;55.724;37.612;2022-12-31T00:01:57;31.52;;;17.15;;
42094;SDS011;27753;55.724;37.612;2022-12-31T00:04:23;29.58;;;17.30;;
42094;SDS011;27753;55.724;37.612;2022-12-31T00:06:49;24.02;;;16.30;;
42094;SDS011;27753;55.724;37.612;2022-12-31T00:09:14;19.35;;;13.15;;
42094;SDS011;27753;55.724;37.612;2022-12-31T00:11:40;17.70;;;12.20;;
42094;SDS011;27753;55.724;37.612;2022-12-31T00:14:06;20.90;;;14.50;;
42094;SDS011;27753;55.724;37.612;2022-12-31T00:16:33;19.08;;;14.45;;
42094;SDS011;27753;55.724;37.612;2022-12-31T00:19:01;17.73;;;10.73;;
42094;SDS011;27753;55.724;37.612;2022-12-31T00:21:28;18.58;;;11.88;;
42094;SDS011;27753;55.724;37.612;2022-12-31T00:23:57;17.95;;;12.35;;
42094;SDS011;27753;55.724;37.612;2022-12-31T00:26:24;17.23;;;12.27;;
42094;SDS011;27753;55.724;37.612;2022-12-31T00:28:53;20.77;;;14.15;;
42094;SDS011;27753;55.724;37.612;2022-12-31T00:31:20;15.10;;;10.80;;
42094;SDS011;27753;55.724;37.612;2022-12-31T00:33:48;16.13;;;11.32;;
42094;SDS011;27753;55.724;37.612;2022-12-31T00:36:18;19.08;;;11.68;;
42094;SDS011;27753;55.724;37.612;2022-12-31T00:39:13;19.33;;;13.23;;
42094;SDS011;27753;55.724;37.612;2022-12-31T00:41:39;22.65;;;13.75;;
42094;SDS011;27753;55.724;37.612;2022-12-31T00:44:07;22.10;;;13.85;;
42094;SDS011;27753;55.724;37.612;2022-12-31T00:46:35;21.35;;;13.35;;
42094;SDS011;27753;55.724;37.612;2022-12-31T00:49:01;17.88;;;11.40;;
42094;SDS011;27753;55.724;37.612;2022-12-31T00:51:27;24.20;;;14.27;;
42094;SDS011;27753;55.724;37.612;2022-12-31T00:53:55;18.52;;;11.75;;
42094;SDS011;27753;55.724;37.612;2022-12-31T00:56:23;18.90;;;12.85;;
42094;SDS011;27753;55.724;37.612;2022-12-31T00:58:51;20.52;;;12.90;;
42094;SDS011;27753;55.724;37.612;2022-12-31T01:03:45;23.75;;;14.32;;
42094;SDS011;27753;55.724;37.612;2022-12-31T01:06:12;21.08;;;14.05;;
42094;SDS011;27753;55.724;37.612;2022-12-31T01:08:39;19.70;;;12.60;;
42094;SDS011;27753;55.724;37.612;2022-12-31T01:11:05;17.85;;;11.30;;
42094;SDS011;27753;55.724;37.612;2022-12-31T01:13:43;17.73;;;11.55;;
42094;SDS011;27753;55.724;37.612;2022-12-31T01:16:11;18.13;;;12.57;;
42094;SDS011;27753;55.724;37.612;2022-12-31T01:18:38;15.60;;;11.38;;
42094;SDS011;27753;55.724;37.612;2022-12-31T01:21:05;19.33;;;11.53;;
42094;SDS011;27753;55.724;37.612;2022-12-31T01:23:32;17.27;;;10.35;;
42094;SDS011;27753;55.724;37.612;2022-12-31T01:25:59;17.45;;;10.48;;
42094;SDS011;27753;55.724;37.612;2022-12-31T01:28:26;16.50;;;11.60;;
42094;SDS011;27753;55.724;37.612;2022-12-31T01:30:53;20.15;;;11.70;;
42094;SDS011;27753;55.724;37.612;2022-12-31T01:33:19;14.85;;;10.98;;
42094;SDS011;27753;55.724;37.612;2022-12-31T01:35:44;21.00;;;12.93;;
42094;SDS011;27753;55.724;37.612;2022-12-31T01:38:10;17.20;;;12.50;;
42094;SDS011;27753;55.724;37.612;2022-12-31T01:40:37;16.63;;;11.98;;
42094;SDS011;27753;55.724;37.612;2022-12-31T01:45:37;17.42;;;11.75;;
42094;SDS011;27753;55.724;37.612;2022-12-31T01:48:06;16.88;;;12.65;;
42094;SDS011;27753;55.724;37.612;2022-12-31T01:50:36;18.20;;;13.35;;
42094;SDS011;27753;55.724;37.612;2022-12-31T01:53:05;17.73;;;12.13;;
42094;SDS011;27753;55.724;37.612;2022-12-31T01:58:16;22.17;;;13.95;;
42094;SDS011;27753;55.724;37.612;2022-12-31T02:00:55;19.42;;;13.23;;
42094;SDS011;27753;55.724;37.612;2022-12-31T02:03:25;15.70;;;12.35;;
42094;SDS011;27753;55.724;37.612;2022-12-31T02:08:31;20.67;;;13.52;;
42094;SDS011;27753;55.724;37.612;2022-12-31T02:11:00;19.73;;;13.20;;
42094;SDS011;27753;55.724;37.612;2022-12-31T02:13:26;19.63;;;13.88;;
42094;SDS011;27753;55.724;37.612;2022-12-31T02:16:07;21.17;;;13.80;;
42094;SDS011;27753;55.724;37.612;2022-12-31T02:24:01;16.23;;;12.38;;
42094;SDS011;27753;55.724;37.612;2022-12-31T02:32:20;19.75;;;13.13;;
42094;SDS011;27753;55.724;37.612;2022-12-31T02:34:57;22.02;;;14.45;;
42094;SDS011;27753;55.724;37.612;2022-12-31T02:37:29;24.33;;;14.50;;
42094;SDS011;27753;55.724;37.612;2022-12-31T02:39:57;22.80;;;14.68;;
42094;SDS011;27753;55.724;37.612;2022-12-31T02:42:24;19.95;;;12.95;;
42094;SDS011;27753;55.724;37.612;2022-12-31T02:44:50;20.48;;;13.57;;
42094;SDS011;27753;55.724;37.612;2022-12-31T02:50:19;21.02;;;12.75;;
42094;SDS011;27753;55.724;37.612;2022-12-31T03:00:19;16.88;;;13.10;;
42094;SDS011;27753;55.724;37.612;2022-12-31T03:03:03;20.67;;;13.77;;
42094;SDS011;27753;55.724;37.612;2022-12-31T03:07:58;14.52;;;10.63;;
42094;SDS011;27753;55.724;37.612;2022-12-31T03:10:24;20.23;;;12.20;;
42094;SDS011;27753;55.724;37.612;2022-12-31T03:12:50;13.80;;;10.98;;
42094;SDS011;27753;55.724;37.612;2022-12-31T03:15:18;19.70;;;12.95;;
42094;SDS011;27753;55.724;37.612;2022-12-31T03:20:18;15.40;;;12.07;;
42094;SDS011;27753;55.724;37.612;2022-12-31T03:23:05;17.27;;;13.20;;
42094;SDS011;27753;55.724;37.612;2022-12-31T03:25:32;21.02;;;12.60;;
42094;SDS011;27753;55.724;37.612;2022-12-31T03:27:59;15.77;;;12.47;;
42094;SDS011;27753;55.724;37.612;2022-12-31T03:30:27;18.30;;;11.43;;
42094;SDS011;27753;55.724;37.612;2022-12-31T03:32:54;18.57;;;12.73;;
42094;SDS011;27753;55.724;37.612;2022-12-31T03:35:23;15.90;;;11.73;;
42094;SDS011;27753;55.724;37.612;2022-12-31T03:37:51;15.98;;;12.77;;
42094;SDS011;27753;55.724;37.612;2022-12-31T03:40:18;21.20;;;12.02;;
42094;SDS011;27753;55.724;37.612;2022-12-31T03:45:11;17.58;;;12.50;;
42094;SDS011;27753;55.724;37.612;2022-12-31T03:47:37;21.48;;;12.80;;
42094;SDS011;27753;55.724;37.612;2022-12-31T03:50:04;16.50;;;11.02;;
42094;SDS011;27753;55.724;37.612;2022-12-31T03:52:31;18.48;;;13.07;;
42094;SDS011;27753;55.724;37.612;2022-12-31T03:54:57;19.35;;;13.25;;
42094;SDS011;27753;55.724;37.612;2022-12-31T03:57:23;19.58;;;12.88;;
42094;SDS011;27753;55.724;37.612;2022-12-31T03:59:49;21.88;;;13.68;;
42094;SDS011;27753;55.724;37.612;2022-12-31T04:02:15;16.52;;;12.02;;
42094;SDS011;27753;55.724;37.612;2022-12-31T04:04:41;19.92;;;12.93;;
42094;SDS011;27753;55.724;37.612;2022-12-31T04:07:07;18.55;;;12.75;;
42094;SDS011;27753;55.724;37.612;2022-12-31T04:09:32;16.65;;;12.73;;
42094;SDS011;27753;55.724;37.612;2022-12-31T04:11:58;15.25;;;12.77;;
42094;SDS011;27753;55.724;37.612;2022-12-31T04:14:24;18.05;;;12.55;;
42094;SDS011;27753;55.724;37.612;2022-12-31T04:16:50;16.98;;;12.75;;
42094;SDS011;27753;55.724;37.612;2022-12-31T04:19:16;18.85;;;13.27;;
42094;SDS011;27753;55.724;37.612;2022-12-31T04:21:42;20.08;;;14.40;;
42094;SDS011;27753;55.724;37.612;2022-12-31T04:24:07;19.25;;;13.40;;
42094;SDS011;27753;55.724;37.612;2022-12-31T04:26:33;20.73;;;12.60;;
42094;SDS011;27753;55.724;37.612;2022-12-31T04:28:59;20.25;;;11.98;;
42094;SDS011;27753;55.724;37.612;2022-12-31T04:31:25;17.55;;;13.48;;
42094;SDS011;27753;55.724;37.612;2022-12-31T04:33:51;21.13;;;13.93;;
42094;SDS011;27753;55.724;37.612;2022-12-31T04:36:17;19.35;;;12.95;;
42094;SDS011;27753;55.724;37.612;2022-12-31T04:38:43;20.00;;;12.95;;
42094;SDS011;27753;55.724;37.612;2022-12-31T04:41:08;23.70;;;14.13;;
42094;SDS011;27753;55.724;37.612;2022-12-31T04:43:45;20.35;;;13.80;;
42094;SDS011;27753;55.724;37.612;2022-12-31T04:46:17;19.95;;;14.43;;
42094;SDS011;27753;55.724;37.612;2022-12-31T04:48:44;16.17;;;12.82;;
42094;SDS011;27753;55.724;37.612;2022-12-31T04:51:12;21.15;;;13.15;;
42094;SDS011;27753;55.724;37.612;2022-12-31T04:53:42;25.77;;;16.38;;
42094;SDS011;27753;55.724;37.612;2022-12-31T04:56:08;21.88;;;13.95;;
42094;SDS011;27753;55.724;37.612;2022-12-31T04:58:34;18.15;;;13.07;;
42094;SDS011;27753;55.724;37.612;2022-12-31T05:01:00;17.98;;;11.68;;
42094;SDS011;27753;55.724;37.612;2022-12-31T05:03:27;16.77;;;12.32;;
42094;SDS011;27753;55.724;37.612;2022-12-31T05:05:53;25.80;;;14.00;;
42094;SDS011;27753;55.724;37.612;2022-12-31T05:08:19;17.83;;;12.65;;
42094;SDS011;27753;55.724;37.612;2022-12-31T05:10:46;18.63;;;12.90;;
42094;SDS011;27753;55.724;37.612;2022-12-31T05:13:13;19.88;;;13.93;;
42094;SDS011;27753;55.724;37.612;2022-12-31T05:15:40;21.30;;;12.63;;
42094;SDS011;27753;55.724;37.612;2022-12-31T05:18:06;17.63;;;12.05;;
42094;SDS011;27753;55.724;37.612;2022-12-31T05:20:34;18.52;;;12.82;;
42094;SDS011;27753;55.724;37.612;2022-12-31T05:23:00;22.40;;;14.52;;
42094;SDS011;27753;55.724;37.612;2022-12-31T05:25:26;18.27;;;11.48;;
42094;SDS011;27753;55.724;37.612;2022-12-31T05:27:52;19.40;;;12.90;;
42094;SDS011;27753;55.724;37.612;2022-12-31T05:30:18;16.05;;;13.30;;
42094;SDS011;27753;55.724;37.612;2022-12-31T05:32:44;19.45;;;15.05;;
42094;SDS011;27753;55.724;37.612;2022-12-31T05:35:11;17.52;;;11.95;;
42094;SDS011;27753;55.724;37.612;2022-12-31T05:37:37;20.70;;;12.65;;
42094;SDS011;27753;55.724;37.612;2022-12-31T05:40:03;25.95;;;13.00;;
42094;SDS011;27753;55.724;37.612;2022-12-31T05:42:29;22.70;;;13.60;;
42094;SDS011;27753;55.724;37.612;2022-12-31T05:44:55;17.90;;;13.20;;
42094;SDS011;27753;55.724;37.612;2022-12-31T05:47:21;17.40;;;12.63;;
42094;SDS011;27753;55.724;37.612;2022-12-31T05:49:47;20.42;;;12.73;;
42094;SDS011;27753;55.724;37.612;2022-12-31T05:52:13;17.83;;;12.45;;
42094;SDS011;27753;55.724;37.612;2022-12-31T05:54:39;19.73;;;12.88;;
42094;SDS011;27753;55.724;37.612;2022-12-31T05:57:05;16.70;;;11.65;;
42094;SDS011;27753;55.724;37.612;2022-12-31T05:59:31;22.30;;;12.40;;
42094;SDS011;27753;55.724;37.612;2022-12-31T06:01:56;16.80;;;12.75;;
42094;SDS011;27753;55.724;37.612;2022-12-31T06:04:22;16.98;;;13.30;;
42094;SDS011;27753;55.724;37.612;2022-12-31T06:06:48;15.88;;;11.40;;
42094;SDS011;27753;55.724;37.612;2022-12-31T06:09:15;16.63;;;12.50;;
42094;SDS011;27753;55.724;37.612;2022-12-31T06:14:08;17.40;;;11.02;;
42094;SDS011;27753;55.724;37.612;2022-12-31T06:16:34;14.02;;;9.57;;
42094;SDS011;27753;55.724;37.612;2022-12-31T06:18:59;16.45;;;10.82;;
42094;SDS011;27753;55.724;37.612;2022-12-31T06:21:28;16.52;;;11.77;;
42094;SDS011;27753;55.724;37.612;2022-12-31T06:23:54;14.43;;;11.45;;
42094;SDS011;27753;55.724;37.612;2022-12-31T06:26:20;15.35;;;10.27;;
42094;SDS011;27753;55.724;37.612;2022-12-31T06:28:46;16.95;;;11.77;;
42094;SDS011;27753;55.724;37.612;2022-12-31T06:31:12;18.73;;;11.15;;
42094;SDS011;27753;55.724;37.612;2022-12-31T06:33:39;16.33;;;11.23;;
42094;SDS011;27753;55.724;37.612;2022-12-31T06:36:06;12.68;;;9.75;;
42094;SDS011;27753;55.724;37.612;2022-12-31T06:38:35;14.15;;;10.93;;
42094;SDS011;27753;55.724;37.612;2022-12-31T06:41:03;15.20;;;9.88;;
42094;SDS011;27753;55.724;37.612;2022-12-31T06:43:33;16.08;;;11.35;;
42094;SDS011;27753;55.724;37.612;2022-12-31T06:45:59;15.05;;;10.30;;
42094;SDS011;27753;55.724;37.612;2022-12-31T06:48:26;8.27;;;6.65;;
42094;SDS011;27753;55.724;37.612;2022-12-31T06:50:52;11.38;;;9.25;;
42094;SDS011;27753;55.724;37.612;2022-12-31T06:53:18;14.15;;;10.15;;
42094;SDS011;27753;55.724;37.612;2022-12-31T06:55:44;15.93;;;10.65;;
42094;SDS011;27753;55.724;37.612;2022-12-31T07:00:39;12.65;;;9.93;;
42094;SDS011;27753;55.724;37.612;2022-12-31T07:03:42;9.57;;;7.68;;
42094;SDS011;27753;55.724;37.612;2022-12-31T07:06:24;10.07;;;6.68;;
42094;SDS011;27753;55.724;37.612;2022-12-31T07:11:37;9.93;;;8.35;;
42094;SDS011;27753;55.724;37.612;2022-12-31T07:22:29;9.73;;;7.68;;
42094;SDS011;27753;55.724;37.612;2022-12-31T07:24:55;11.20;;;8.27;;
42094;SDS011;27753;55.724;37.612;2022-12-31T07:32:49;12.77;;;8.77;;
42094;SDS011;27753;55.724;37.612;2022-12-31T07:40:55;11.68;;;8.48;;
42094;SDS011;27753;55.724;37.612;2022-12-31T07:43:31;11.73;;;9.18;;
42094;SDS011;27753;55.724;37.612;2022-12-31T07:48:52;10.32;;;7.50;;
42094;SDS011;27753;55.724;37.612;2022-12-31T07:51:18;10.00;;;7.40;;
42094;SDS011;27753;55.724;37.612;2022-12-31T07:53:45;8.25;;;4.22;;
42094;SDS011;27753;55.724;37.612;2022-12-31T07:56:10;10.00;;;7.82;;
42094;SDS011;27753;55.724;37.612;2022-12-31T07:58:49;11.85;;;8.20;;
42094;SDS011;27753;55.724;37.612;2022-12-31T08:01:30;13.38;;;8.65;;
42094;SDS011;27753;55.724;37.612;2022-12-31T08:09:38;10.02;;;7.55;;
42094;SDS011;27753;55.724;37.612;2022-12-31T08:12:15;11.00;;;8.13;;
42094;SDS011;27753;55.724;37.612;2022-12-31T08:17:13;12.20;;;7.18;;
42094;SDS011;27753;55.724;37.612;2022-12-31T08:19:40;9.65;;;7.75;;
42094;SDS011;27753;55.724;37.612;2022-12-31T08:24:46;15.50;;;7.88;;
42094;SDS011;27753;55.724;37.612;2022-12-31T08:27:25;22.10;;;9.73;;
42094;SDS011;27753;55.724;37.612;2022-12-31T08:30:20;12.40;;;7.80;;
42094;SDS011;27753;55.724;37.612;2022-12-31T08:33:09;11.27;;;8.60;;
42094;SDS011;27753;55.724;37.612;2022-12-31T08:38:58;10.63;;;7.68;;
42094;SDS011;27753;55.724;37.612;2022-12-31T08:41:39;11.18;;;7.28;;
42094;SDS011;27753;55.724;37.612;2022-12-31T08:44:38;13.23;;;8.18;;
42094;SDS011;27753;55.724;37.612;2022-12-31T08:49:46;13.23;;;8.68;;
42094;SDS011;27753;55.724;37.612;2022-12-31T08:52:22;13.68;;;7.75;;
42094;SDS011;27753;55.724;37.612;2022-12-31T08:54:49;9.90;;;8.13;;
42094;SDS011;27753;55.724;37.612;2022-12-31T09:00:05;18.02;;;10.27;;
42094;SDS011;27753;55.724;37.612;2022-12-31T09:02:36;13.38;;;9.57;;
42094;SDS011;27753;55.724;37.612;2022-12-31T09:05:25;13.98;;;9.20;;
42094;SDS011;27753;55.724;37.612;2022-12-31T09:07:56;11.32;;;9.13;;
42094;SDS011;27753;55.724;37.612;2022-12-31T09:10:51;12.95;;;8.75;;
42094;SDS011;27753;55.724;37.612;2022-12-31T09:13:32;11.40;;;9.07;;
42094;SDS011;27753;55.724;37.612;2022-12-31T09:19:00;11.13;;;7.75;;
42094;SDS011;27753;55.724;37.612;2022-12-31T09:21:26;12.73;;;8.95;;
42094;SDS011;27753;55.724;37.612;2022-12-31T09:23:52;11.60;;;9.05;;
42094;SDS011;27753;55.724;37.612;2022-12-31T09:48:34;10.00;;;7.13;;
42094;SDS011;27753;55.724;37.612;2022-12-31T09:51:43;12.88;;;8.20;;
42094;SDS011;27753;55.724;37.612;2022-12-31T10:05:55;8.43;;;6.15;;
42094;SDS011;27753;55.724;37.612;2022-12-31T10:14:38;8.55;;;6.13;;
42094;SDS011;27753;55.724;37.612;2022-12-31T10:26:05;9.27;;;6.72;;
42094;SDS011;27753;55.724;37.612;2022-12-31T10:28:44;14.80;;;7.95;;
42094;SDS011;27753;55.724;37.612;2022-12-31T10:31:14;12.25;;;7.80;;
42094;SDS011;27753;55.724;37.612;2022-12-31T10:33:54;8.80;;;7.03;;
42094;SDS011;27753;55.724;37.612;2022-12-31T10:45:18;11.85;;;7.68;;
42094;SDS011;27753;55.724;37.612;2022-12-31T11:10:37;10.23;;;5.30;;
42094;SDS011;27753;55.724;37.612;2022-12-31T11:16:06;8.73;;;6.07;;
42094;SDS011;27753;55.724;37.612;2022-12-31T11:24:21;14.93;;;8.43;;
42094;SDS011;27753;55.724;37.612;2022-12-31T11:32:35;14.35;;;7.50;;
42094;SDS011;27753;55.724;37.612;2022-12-31T11:35:22;10.80;;;6.47;;
42094;SDS011;27753;55.724;37.612;2022-12-31T11:38:46;11.40;;;7.70;;
42094;SDS011;27753;55.724;37.612;2022-12-31T11:41:01;9.52;;;7.05;;
42094;SDS011;27753;55.724;37.612;2022-12-31T11:43:38;9.52;;;6.05;;
42094;SDS011;27753;55.724;37.612;2022-12-31T11:46:19;11.00;;;7.07;;
42094;SDS011;27753;55.724;37.612;2022-12-31T11:51:51;8.98;;;6.35;;
42094;SDS011;27753;55.724;37.612;2022-12-31T11:57:21;8.85;;;6.00;;
42094;SDS011;27753;55.724;37.612;2022-12-31T12:00:00;9.23;;;5.82;;
42094;SDS011;27753;55.724;37.612;2022-12-31T12:02:57;6.68;;;5.85;;
42094;SDS011;27753;55.724;37.612;2022-12-31T12:05:25;9.48;;;5.07;;
42094;SDS011;27753;55.724;37.612;2022-12-31T12:07:52;7.35;;;6.00;;
42094;SDS011;27753;55.724;37.612;2022-12-31T12:13:10;11.07;;;7.97;;
42094;SDS011;27753;55.724;37.612;2022-12-31T12:15:57;13.60;;;7.20;;
42094;SDS011;27753;55.724;37.612;2022-12-31T12:21:09;11.65;;;6.03;;
42094;SDS011;27753;55.724;37.612;2022-12-31T12:24:02;14.63;;;8.57;;
42094;SDS011;27753;55.724;37.612;2022-12-31T12:26:37;7.75;;;5.50;;
42094;SDS011;27753;55.724;37.612;2022-12-31T12:29:19;7.18;;;5.70;;
42094;SDS011;27753;55.724;37.612;2022-12-31T12:31:56;8.73;;;5.25;;
42094;SDS011;27753;55.724;37.612;2022-12-31T12:34:38;10.88;;;6.72;;
42094;SDS011;27753;55.724;37.612;2022-12-31T12:39:58;7.60;;;6.15;;
42094;SDS011;27753;55.724;37.612;2022-12-31T12:42:33;10.27;;;6.93;;
42094;SDS011;27753;55.724;37.612;2022-12-31T12:45:06;11.80;;;6.22;;
42094;SDS011;27753;55.724;37.612;2022-12-31T12:47:40;8.00;;;5.68;;
42094;SDS011;27753;55.724;37.612;2022-12-31T12:50:17;7.47;;;5.25;;
42094;SDS011;27753;55.724;37.612;2022-12-31T12:52:52;7.13;;;5.03;;
42094;SDS011;27753;55.724;37.612;2022-12-31T12:55:45;8.18;;;5.80;;
42094;SDS011;27753;55.724;37.612;2022-12-31T13:04:07;6.00;;;4.70;;
42094;SDS011;27753;55.724;37.612;2022-12-31T13:15:37;6.72;;;4.18;;
42094;SDS011;27753;55.724;37.612;2022-12-31T13:23:42;7.97;;;4.05;;
42094;SDS011;27753;55.724;37.612;2022-12-31T13:29:07;13.70;;;4.87;;
42094;SDS011;27753;55.724;37.612;2022-12-31T13:31:40;8.55;;;5.85;;
42094;SDS011;27753;55.724;37.612;2022-12-31T13:34:12;5.90;;;3.60;;
42094;SDS011;27753;55.724;37.612;2022-12-31T13:36:42;6.80;;;3.83;;
42094;SDS011;27753;55.724;37.612;2022-12-31T13:39:15;5.40;;;3.08;;
42094;SDS011;27753;55.724;37.612;2022-12-31T13:41:54;8.05;;;5.30;;
42094;SDS011;27753;55.724;37.612;2022-12-31T13:44:52;6.72;;;4.10;;
42094;SDS011;27753;55.724;37.612;2022-12-31T13:47:36;5.68;;;3.55;;
42094;SDS011;27753;55.724;37.612;2022-12-31T13:50:32;4.60;;;3.35;;
42094;SDS011;27753;55.724;37.612;2022-12-31T13:55:51;4.93;;;2.83;;
42094;SDS011;27753;55.724;37.612;2022-12-31T14:09:33;5.30;;;3.95;;
42094;SDS011;27753;55.724;37.612;2022-12-31T14:14:51;7.53;;;3.00;;
42094;SDS011;27753;55.724;37.612;2022-12-31T14:20:10;3.97;;;2.90;;
42094;SDS011;27753;55.724;37.612;2022-12-31T14:26:01;6.32;;;3.90;;
42094;SDS011;27753;55.724;37.612;2022-12-31T14:28:09;5.30;;;3.63;;
42094;SDS011;27753;55.724;37.612;2022-12-31T14:34:01;6.80;;;3.67;;
42094;SDS011;27753;55.724;37.612;2022-12-31T14:36:42;7.13;;;4.43;;
42094;SDS011;27753;55.724;37.612;2022-12-31T14:39:23;6.85;;;4.95;;
42094;SDS011;27753;55.724;37.612;2022-12-31T14:50:30;5.55;;;3.83;;
42094;SDS011;27753;55.724;37.612;2022-12-31T14:58:01;6.32;;;4.03;;
42094;SDS011;27753;55.724;37.612;2022-12-31T15:00:56;6.20;;;4.45;;
42094;SDS011;27753;55.724;37.612;2022-12-31T15:03:31;5.53;;;3.60;;
42094;SDS011;27753;55.724;37.612;2022-12-31T15:06:02;7.20;;;4.65;;
42094;SDS011;27753;55.724;37.612;2022-12-31T15:22:37;9.52;;;5.13;;
42094;SDS011;27753;55.724;37.612;2022-12-31T15:27:57;8.23;;;5.60;;
42094;SDS011;27753;55.724;37.612;2022-12-31T15:32:53;9.52;;;6.65;;
42094;SDS011;27753;55.724;37.612;2022-12-31T15:35:26;13.57;;;8.00;;
42094;SDS011;27753;55.724;37.612;2022-12-31T15:38:02;9.40;;;7.10;;
42094;SDS011;27753;55.724;37.612;2022-12-31T15:40:52;11.82;;;8.55;;
42094;SDS011;27753;55.724;37.612;2022-12-31T15:45:51;11.85;;;8.25;;
42094;SDS011;27753;55.724;37.612;2022-12-31T15:48:28;12.65;;;8.68;;
42094;SDS011;27753;55.724;37.612;2022-12-31T15:51:14;14.20;;;9.27;;
42094;SDS011;27753;55.724;37.612;2022-12-31T15:53:45;12.80;;;10.20;;
42094;SDS011;27753;55.724;37.612;2022-12-31T15:56:38;13.32;;;8.23;;
42094;SDS011;27753;55.724;37.612;2022-12-31T15:59:15;16.80;;;13.07;;
42094;SDS011;27753;55.724;37.612;2022-12-31T16:01:42;14.50;;;9.40;;
42094;SDS011;27753;55.724;37.612;2022-12-31T16:04:17;17.35;;;11.60;;
42094;SDS011;27753;55.724;37.612;2022-12-31T16:06:45;14.32;;;10.60;;
42094;SDS011;27753;55.724;37.612;2022-12-31T16:09:30;13.43;;;9.33;;
42094;SDS011;27753;55.724;37.612;2022-12-31T16:11:58;16.00;;;10.27;;
42094;SDS011;27753;55.724;37.612;2022-12-31T16:14:36;14.48;;;10.32;;
42094;SDS011;27753;55.724;37.612;2022-12-31T16:17:27;14.98;;;10.55;;
42094;SDS011;27753;55.724;37.612;2022-12-31T16:19:55;18.15;;;10.75;;
42094;SDS011;27753;55.724;37.612;2022-12-31T16:22:35;14.10;;;10.68;;
42094;SDS011;27753;55.724;37.612;2022-12-31T16:25:03;16.00;;;10.68;;
42094;SDS011;27753;55.724;37.612;2022-12-31T16:27:30;13.07;;;9.55;;
42094;SDS011;27753;55.724;37.612;2022-12-31T16:30:03;10.80;;;8.75;;
42094;SDS011;27753;55.724;37.612;2022-12-31T16:32:37;13.50;;;9.30;;
42094;SDS011;27753;55.724;37.612;2022-12-31T16:35:18;23.58;;;15.63;;
42094;SDS011;27753;55.724;37.612;2022-12-31T16:37:44;15.30;;;10.55;;
42094;SDS011;27753;55.724;37.612;2022-12-31T16:40:20;13.95;;;9.80;;
42094;SDS011;27753;55.724;37.612;2022-12-31T16:42:48;12.35;;;9.35;;
42094;SDS011;27753;55.724;37.612;2022-12-31T16:47:53;7.93;;;6.00;;
42094;SDS011;27753;55.724;37.612;2022-12-31T16:50:20;7.97;;;7.07;;
42094;SDS011;27753;55.724;37.612;2022-12-31T16:52:49;11.25;;;7.57;;
42094;SDS011;27753;55.724;37.612;2022-12-31T16:55:36;6.95;;;5.18;;
42094;SDS011;27753;55.724;37.612;2022-12-31T16:58:20;5.82;;;4.40;;
42094;SDS011;27753;55.724;37.612;2022-12-31T17:00:47;5.88;;;3.97;;
42094;SDS011;27753;55.724;37.612;2022-12-31T17:11:36;5.72;;;4.30;;
42094;SDS011;27753;55.724;37.612;2022-12-31T17:14:16;5.72;;;3.67;;
42094;SDS011;27753;55.724;37.612;2022-12-31T17:17:00;4.80;;;3.47;;
42094;SDS011;27753;55.724;37.612;2022-12-31T17:19:37;4.80;;;3.47;;
42094;SDS011;27753;55.724;37.612;2022-12-31T17:22:03;3.80;;;2.50;;
42094;SDS011;27753;55.724;37.612;2022-12-31T17:24:33;4.15;;;3.17;;
42094;SDS011;27753;55.724;37.612;2022-12-31T17:27:04;4.72;;;3.20;;
42094;SDS011;27753;55.724;37.612;2022-12-31T17:29:31;4.47;;;3.28;;
42094;SDS011;27753;55.724;37.612;2022-12-31T17:31:59;5.57;;;2.88;;
42094;SDS011;27753;55.724;37.612;2022-12-31T17:34:30;5.50;;;3.38;;
42094;SDS011;27753;55.724;37.612;2022-12-31T17:37:02;7.72;;;5.32;;
42094;SDS011;27753;55.724;37.612;2022-12-31T17:42:10;3.28;;;2.95;;
42094;SDS011;27753;55.724;37.612;2022-12-31T17:47:06;6.53;;;3.90;;
42094;SDS011;27753;55.724;37.612;2022-12-31T17:49:35;7.03;;;4.72;;
42094;SDS011;27753;55.724;37.612;2022-12-31T17:52:02;6.40;;;3.67;;
42094;SDS011;27753;55.724;37.612;2022-12-31T17:54:28;6.22;;;3.60;;
42094;SDS011;27753;55.724;37.612;2022-12-31T17:56:53;10.50;;;3.95;;
42094;SDS011;27753;55.724;37.612;2022-12-31T17:59:20;4.55;;;3.00;;
42094;SDS011;27753;55.724;37.612;2022-12-31T18:01:48;5.93;;;3.72;;
42094;SDS011;27753;55.724;37.612;2022-12-31T18:04:15;6.03;;;3.50;;
42094;SDS011;27753;55.724;37.612;2022-12-31T18:06:43;6.15;;;3.20;;
42094;SDS011;27753;55.724;37.612;2022-12-31T18:09:09;5.10;;;3.65;;
42094;SDS011;27753;55.724;37.612;2022-12-31T18:11:35;5.72;;;4.30;;
42094;SDS011;27753;55.724;37.612;2022-12-31T18:14:05;4.53;;;3.35;;
42094;SDS011;27753;55.724;37.612;2022-12-31T18:16:31;6.60;;;3.60;;
42094;SDS011;27753;55.724;37.612;2022-12-31T18:18:57;3.30;;;2.75;;
42094;SDS011;27753;55.724;37.612;2022-12-31T18:21:28;7.82;;;3.65;;
42094;SDS011;27753;55.724;37.612;2022-12-31T18:23:56;4.78;;;3.47;;
42094;SDS011;27753;55.724;37.612;2022-12-31T18:26:24;5.13;;;3.97;;
42094;SDS011;27753;55.724;37.612;2022-12-31T18:28:50;9.10;;;4.77;;
42094;SDS011;27753;55.724;37.612;2022-12-31T18:33:47;6.43;;;4.15;;
42094;SDS011;27753;55.724;37.612;2022-12-31T18:36:14;6.78;;;4.25;;
42094;SDS011;27753;55.724;37.612;2022-12-31T18:38:41;6.70;;;4.07;;
42094;SDS011;27753;55.724;37.612;2022-12-31T18:41:14;6.18;;;3.95;;
42094;SDS011;27753;55.724;37.612;2022-12-31T18:43:42;6.45;;;3.65;;
42094;SDS011;27753;55.724;37.612;2022-12-31T18:46:10;4.97;;;4.15;;
42094;SDS011;27753;55.724;37.612;2022-12-31T18:48:37;7.72;;;4.13;;
42094;SDS011;27753;55.724;37.612;2022-12-31T18:51:06;6.05;;;4.78;;
42094;SDS011;27753;55.724;37.612;2022-12-31T18:53:37;10.82;;;5.53;;
42094;SDS011;27753;55.724;37.612;2022-12-31T18:56:02;6.72;;;4.60;;
42094;SDS011;27753;55.724;37.612;2022-12-31T18:58:28;9.18;;;4.82;;
42094;SDS011;27753;55.724;37.612;2022-12-31T19:00:54;8.70;;;4.53;;
42094;SDS011;27753;55.724;37.612;2022-12-31T19:03:21;7.13;;;4.50;;
42094;SDS011;27753;55.724;37.612;2022-12-31T19:05:48;6.75;;;4.47;;
42094;SDS011;27753;55.724;37.612;2022-12-31T19:08:18;8.00;;;5.10;;
42094;SDS011;27753;55.724;37.612;2022-12-31T19:10:46;8.23;;;4.30;;
42094;SDS011;27753;55.724;37.612;2022-12-31T19:13:14;8.25;;;5.63;;
42094;SDS011;27753;55.724;37.612;2022-12-31T19:15:42;6.78;;;4.68;;
42094;SDS011;27753;55.724;37.612;2022-12-31T19:18:11;10.32;;;5.63;;
42094;SDS011;27753;55.724;37.612;2022-12-31T19:20:37;7.43;;;5.43;;
42094;SDS011;27753;55.724;37.612;2022-12-31T19:23:03;7.40;;;5.27;;
42094;SDS011;27753;55.724;37.612;2022-12-31T19:25:31;9.07;;;4.82;;
42094;SDS011;27753;55.724;37.612;2022-12-31T19:27:58;18.85;;;5.72;;
42094;SDS011;27753;55.724;37.612;2022-12-31T19:30:29;7.97;;;5.50;;
42094;SDS011;27753;55.724;37.612;2022-12-31T19:32:56;9.95;;;5.25;;
42094;SDS011;27753;55.724;37.612;2022-12-31T19:35:22;7.80;;;5.05;;
42094;SDS011;27753;55.724;37.612;2022-12-31T19:37:49;11.02;;;5.30;;
42094;SDS011;27753;55.724;37.612;2022-12-31T19:40:21;6.70;;;4.95;;
42094;SDS011;27753;55.724;37.612;2022-12-31T19:42:50;8.73;;;5.28;;
42094;SDS011;27753;55.724;37.612;2022-12-31T19:45:23;9.25;;;6.75;;
42094;SDS011;27753;55.724;37.612;2022-12-31T19:47:51;14.75;;;7.15;;